OVO2205 ZLLL-ZLDL
Flight info
| Callsign | OVO2205 |
|---|---|
| Flight time | 1h 18m |
| Altitude | 40100 |
| Route | DNC H15 DLH |
| Aircraft | B737/M-SDE2E3FGHIJ1RWXY/LB1 |
Departure
| Time | 2026-04-25 15:39 |
|---|---|
| Airport | Lanzhou Zhongchuan International Airport (ZLLL) |
Arrival
| Time | 2026-04-25 16:58 |
|---|---|
| Airport | Haixi Delingha Airport (ZLDL) |
| Time | Latitude | Longitude | Altitude | Speed | Heading |
|---|---|---|---|---|---|
| 2026-04-25 15:38 | 36.49933 | 103.62181 | 6328 ft | 0 kts | 357° |
| 2026-04-25 15:38 | 36.49934 | 103.62181 | 6328 ft | 4 kts | 357° |
| 2026-04-25 15:39 | 36.50318 | 103.62158 | 6334 ft | 104 kts | 357° |
| 2026-04-25 15:39 | 36.51287 | 103.62124 | 6628 ft | 154 kts | 358° |
| 2026-04-25 15:39 | 36.52333 | 103.62097 | 7897 ft | 142 kts | 360° |
| 2026-04-25 15:39 | 36.53304 | 103.62065 | 8976 ft | 143 kts | 0° |
| 2026-04-25 15:40 | 36.54358 | 103.62025 | 9754 ft | 162 kts | 359° |
| 2026-04-25 15:40 | 36.54749 | 103.62002 | 9970 ft | 173 kts | 359° |
| 2026-04-25 15:40 | 36.57116 | 103.61824 | 10709 ft | 228 kts | 357° |
| 2026-04-25 15:40 | 36.58762 | 103.61614 | 11351 ft | 249 kts | 356° |
| 2026-04-25 15:41 | 36.60559 | 103.61431 | 11848 ft | 273 kts | 356° |
| 2026-04-25 15:41 | 36.62575 | 103.61224 | 12247 ft | 303 kts | 356° |
| 2026-04-25 15:41 | 36.64704 | 103.61002 | 13250 ft | 310 kts | 354° |
| 2026-04-25 15:41 | 36.66797 | 103.60200 | 14076 ft | 327 kts | 330° |
| 2026-04-25 15:42 | 36.68568 | 103.58335 | 14812 ft | 336 kts | 309° |
| 2026-04-25 15:42 | 36.70066 | 103.56099 | 15974 ft | 335 kts | 309° |
| 2026-04-25 15:42 | 36.71562 | 103.53901 | 17304 ft | 328 kts | 309° |
| 2026-04-25 15:42 | 36.72999 | 103.51815 | 18788 ft | 316 kts | 309° |
| 2026-04-25 15:43 | 36.74415 | 103.49773 | 20053 ft | 308 kts | 309° |
| 2026-04-25 15:43 | 36.75804 | 103.47736 | 21070 ft | 310 kts | 309° |
| 2026-04-25 15:43 | 36.77190 | 103.45652 | 21987 ft | 314 kts | 309° |
| 2026-04-25 15:43 | 36.78223 | 103.43245 | 22892 ft | 322 kts | 285° |
| 2026-04-25 15:44 | 36.78227 | 103.40425 | 23831 ft | 336 kts | 261° |
| 2026-04-25 15:44 | 36.77268 | 103.37708 | 24636 ft | 349 kts | 246° |
| 2026-04-25 15:44 | 36.75956 | 103.35131 | 25372 ft | 356 kts | 243° |
| 2026-04-25 15:44 | 36.74552 | 103.32548 | 26081 ft | 361 kts | 244° |
| 2026-04-25 15:45 | 36.73293 | 103.29853 | 26847 ft | 358 kts | 251° |
| 2026-04-25 15:45 | 36.72582 | 103.27979 | 27130 ft | 366 kts | 252° |
| 2026-04-25 15:45 | 36.71188 | 103.23952 | 27429 ft | 388 kts | 254° |
| 2026-04-25 15:45 | 36.70834 | 103.22896 | 27581 ft | 391 kts | 253° |
| 2026-04-25 15:46 | 36.68877 | 103.17731 | 28697 ft | 401 kts | 250° |
| 2026-04-25 15:46 | 36.67560 | 103.14656 | 29371 ft | 404 kts | 249° |
| 2026-04-25 15:46 | 36.66198 | 103.11569 | 29946 ft | 409 kts | 248° |
| 2026-04-25 15:46 | 36.64818 | 103.08449 | 30492 ft | 413 kts | 248° |
| 2026-04-25 15:47 | 36.63430 | 103.05314 | 31120 ft | 413 kts | 248° |
| 2026-04-25 15:47 | 36.62050 | 103.02191 | 31797 ft | 411 kts | 248° |
| 2026-04-25 15:47 | 36.61140 | 103.00128 | 32260 ft | 409 kts | 248° |
| 2026-04-25 15:47 | 36.59355 | 102.96076 | 33406 ft | 398 kts | 248° |
| 2026-04-25 15:48 | 36.58036 | 102.93082 | 34236 ft | 391 kts | 248° |
| 2026-04-25 15:48 | 36.56743 | 102.90141 | 34949 ft | 384 kts | 248° |
| 2026-04-25 15:48 | 36.55897 | 102.88222 | 35408 ft | 380 kts | 248° |
| 2026-04-25 15:48 | 36.54506 | 102.84291 | 36292 ft | 362 kts | 260° |
| 2026-04-25 15:49 | 36.54006 | 102.81284 | 36992 ft | 350 kts | 266° |
| 2026-04-25 15:49 | 36.53832 | 102.79307 | 37363 ft | 345 kts | 271° |
| 2026-04-25 15:49 | 36.53782 | 102.76356 | 37925 ft | 340 kts | 271° |
| 2026-04-25 15:49 | 36.53755 | 102.73439 | 38467 ft | 336 kts | 271° |
| 2026-04-25 15:50 | 36.53734 | 102.70558 | 38953 ft | 333 kts | 272° |
| 2026-04-25 15:50 | 36.53710 | 102.67662 | 39156 ft | 337 kts | 271° |
| 2026-04-25 15:50 | 36.53684 | 102.64742 | 39433 ft | 338 kts | 272° |
| 2026-04-25 15:50 | 36.53655 | 102.61812 | 39608 ft | 341 kts | 272° |
| 2026-04-25 15:51 | 36.53622 | 102.58856 | 39800 ft | 343 kts | 272° |
| 2026-04-25 15:51 | 36.53599 | 102.56897 | 39974 ft | 343 kts | 272° |
| 2026-04-25 15:51 | 36.53550 | 102.52923 | 40282 ft | 345 kts | 272° |
| 2026-04-25 15:51 | 36.53513 | 102.49938 | 40487 ft | 346 kts | 272° |
| 2026-04-25 15:52 | 36.53476 | 102.46941 | 40768 ft | 348 kts | 272° |
| 2026-04-25 15:52 | 36.53438 | 102.43928 | 41032 ft | 349 kts | 272° |
| 2026-04-25 15:52 | 36.53396 | 102.40896 | 41284 ft | 351 kts | 272° |
| 2026-04-25 15:52 | 36.53353 | 102.37869 | 41539 ft | 351 kts | 272° |
| 2026-04-25 15:53 | 36.53309 | 102.34821 | 41688 ft | 354 kts | 272° |
| 2026-04-25 15:53 | 36.53265 | 102.31758 | 41885 ft | 355 kts | 272° |
| 2026-04-25 15:53 | 36.53220 | 102.28677 | 42084 ft | 357 kts | 272° |
| 2026-04-25 15:53 | 36.53174 | 102.25584 | 42259 ft | 359 kts | 272° |
| 2026-04-25 15:54 | 36.53127 | 102.22474 | 42389 ft | 361 kts | 272° |
| 2026-04-25 15:54 | 36.53080 | 102.19343 | 42538 ft | 364 kts | 272° |
| 2026-04-25 15:54 | 36.53031 | 102.16189 | 42709 ft | 365 kts | 272° |
| 2026-04-25 15:54 | 36.52980 | 102.13037 | 42947 ft | 365 kts | 272° |
| 2026-04-25 15:55 | 36.52878 | 102.06678 | 43054 ft | 370 kts | 272° |
| 2026-04-25 15:55 | 36.53042 | 102.00353 | 43023 ft | 365 kts | 279° |
| 2026-04-25 15:56 | 36.53668 | 101.94119 | 43021 ft | 361 kts | 279° |
| 2026-04-25 15:56 | 36.54299 | 101.87947 | 43010 ft | 359 kts | 279° |
| 2026-04-25 15:57 | 36.54912 | 101.81807 | 43007 ft | 357 kts | 279° |
| 2026-04-25 15:57 | 36.55514 | 101.75681 | 43001 ft | 356 kts | 279° |
| 2026-04-25 15:58 | 36.56107 | 101.69565 | 43007 ft | 356 kts | 279° |
| 2026-04-25 15:58 | 36.56698 | 101.63433 | 43012 ft | 360 kts | 278° |
| 2026-04-25 15:59 | 36.57299 | 101.57166 | 43026 ft | 370 kts | 278° |
| 2026-04-25 15:59 | 36.57913 | 101.50724 | 43018 ft | 380 kts | 278° |
| 2026-04-25 16:00 | 36.58330 | 101.46329 | 43021 ft | 385 kts | 278° |
| 2026-04-25 16:00 | 36.59164 | 101.37459 | 43004 ft | 388 kts | 278° |
| 2026-04-25 16:01 | 36.59786 | 101.30795 | 43016 ft | 388 kts | 278° |
| 2026-04-25 16:01 | 36.60407 | 101.24108 | 43002 ft | 389 kts | 278° |
| 2026-04-25 16:02 | 36.61024 | 101.17419 | 42998 ft | 390 kts | 278° |
| 2026-04-25 16:02 | 36.61638 | 101.10726 | 42991 ft | 388 kts | 278° |
| 2026-04-25 16:03 | 36.62240 | 101.04116 | 42996 ft | 386 kts | 278° |
| 2026-04-25 16:03 | 36.62843 | 100.97488 | 42984 ft | 385 kts | 278° |
| 2026-04-25 16:04 | 36.63437 | 100.90888 | 42985 ft | 384 kts | 278° |
| 2026-04-25 16:04 | 36.64027 | 100.84291 | 42973 ft | 383 kts | 278° |
| 2026-04-25 16:05 | 36.64613 | 100.77704 | 42972 ft | 382 kts | 278° |
| 2026-04-25 16:06 | 36.65483 | 100.67842 | 42957 ft | 381 kts | 278° |
| 2026-04-25 16:06 | 36.66057 | 100.61282 | 42961 ft | 381 kts | 278° |
| 2026-04-25 16:07 | 36.66628 | 100.54719 | 42969 ft | 381 kts | 278° |
| 2026-04-25 16:07 | 36.67196 | 100.48147 | 42953 ft | 382 kts | 278° |
| 2026-04-25 16:08 | 36.67760 | 100.41569 | 42953 ft | 382 kts | 278° |
| 2026-04-25 16:08 | 36.68322 | 100.34986 | 42957 ft | 382 kts | 278° |
| 2026-04-25 16:09 | 36.68879 | 100.28407 | 42956 ft | 382 kts | 278° |
| 2026-04-25 16:09 | 36.69434 | 100.21813 | 42964 ft | 383 kts | 278° |
| 2026-04-25 16:10 | 36.69985 | 100.15221 | 42959 ft | 383 kts | 278° |
| 2026-04-25 16:10 | 36.70532 | 100.08628 | 42974 ft | 383 kts | 278° |
| 2026-04-25 16:11 | 36.71077 | 100.02028 | 42974 ft | 383 kts | 277° |
| 2026-04-25 16:11 | 36.71617 | 99.95427 | 42976 ft | 383 kts | 277° |
| 2026-04-25 16:12 | 36.72154 | 99.88824 | 42980 ft | 383 kts | 277° |
| 2026-04-25 16:12 | 36.72688 | 99.82220 | 42965 ft | 383 kts | 277° |
| 2026-04-25 16:13 | 36.73217 | 99.75616 | 42979 ft | 383 kts | 277° |
| 2026-04-25 16:13 | 36.73743 | 99.69014 | 42980 ft | 382 kts | 277° |
| 2026-04-25 16:14 | 36.74261 | 99.62464 | 42982 ft | 383 kts | 277° |
| 2026-04-25 16:14 | 36.74780 | 99.55857 | 42984 ft | 383 kts | 277° |
| 2026-04-25 16:15 | 36.75296 | 99.49238 | 42960 ft | 384 kts | 277° |
| 2026-04-25 16:15 | 36.75809 | 99.42617 | 42952 ft | 383 kts | 277° |
| 2026-04-25 16:16 | 36.76316 | 99.36016 | 42969 ft | 383 kts | 277° |
| 2026-04-25 16:16 | 36.76820 | 99.29398 | 42971 ft | 384 kts | 277° |
| 2026-04-25 16:17 | 36.77323 | 99.22762 | 42964 ft | 385 kts | 277° |
| 2026-04-25 16:17 | 36.77824 | 99.16114 | 42964 ft | 385 kts | 277° |
| 2026-04-25 16:18 | 36.79087 | 99.09655 | 42973 ft | 384 kts | 290° |
| 2026-04-25 16:18 | 36.81487 | 99.03619 | 42369 ft | 392 kts | 297° |
| 2026-04-25 16:18 | 36.82795 | 99.00632 | 41815 ft | 391 kts | 296° |
| 2026-04-25 16:19 | 36.84096 | 98.97678 | 41258 ft | 388 kts | 296° |
| 2026-04-25 16:19 | 36.85385 | 98.94740 | 40728 ft | 384 kts | 296° |
| 2026-04-25 16:19 | 36.86660 | 98.91815 | 40158 ft | 381 kts | 295° |
| 2026-04-25 16:20 | 36.88746 | 98.87000 | 39247 ft | 377 kts | 294° |
| 2026-04-25 16:20 | 36.90404 | 98.83151 | 38491 ft | 375 kts | 294° |
| 2026-04-25 16:20 | 36.92860 | 98.77438 | 37244 ft | 371 kts | 294° |
| 2026-04-25 16:21 | 36.94073 | 98.74606 | 36666 ft | 368 kts | 295° |
| 2026-04-25 16:21 | 36.95273 | 98.71802 | 36174 ft | 364 kts | 295° |
| 2026-04-25 16:21 | 36.96462 | 98.69024 | 35705 ft | 360 kts | 295° |
| 2026-04-25 16:21 | 36.97635 | 98.66281 | 35273 ft | 356 kts | 295° |
| 2026-04-25 16:22 | 36.98798 | 98.63559 | 34810 ft | 353 kts | 296° |
| 2026-04-25 16:22 | 36.99951 | 98.60858 | 34382 ft | 350 kts | 296° |
| 2026-04-25 16:22 | 37.01092 | 98.58181 | 33959 ft | 348 kts | 296° |
| 2026-04-25 16:22 | 37.02227 | 98.55517 | 33472 ft | 346 kts | 296° |
| 2026-04-25 16:23 | 37.03354 | 98.52870 | 33043 ft | 343 kts | 296° |
| 2026-04-25 16:23 | 37.04470 | 98.50248 | 32607 ft | 340 kts | 297° |
| 2026-04-25 16:23 | 37.05576 | 98.47645 | 32171 ft | 338 kts | 297° |
| 2026-04-25 16:23 | 37.06675 | 98.45057 | 31761 ft | 336 kts | 297° |
| 2026-04-25 16:24 | 37.07768 | 98.42482 | 31366 ft | 334 kts | 297° |
| 2026-04-25 16:24 | 37.08856 | 98.39916 | 30958 ft | 334 kts | 297° |
| 2026-04-25 16:24 | 37.09944 | 98.37350 | 30551 ft | 333 kts | 297° |
| 2026-04-25 16:24 | 37.11028 | 98.34790 | 30162 ft | 332 kts | 297° |
| 2026-04-25 16:25 | 37.12112 | 98.32229 | 29659 ft | 333 kts | 298° |
| 2026-04-25 16:25 | 37.12462 | 98.31402 | 29522 ft | 332 kts | 297° |
| 2026-04-25 16:25 | 37.14250 | 98.27171 | 28790 ft | 329 kts | 297° |
| 2026-04-25 16:25 | 37.15317 | 98.24644 | 28352 ft | 327 kts | 297° |
| 2026-04-25 16:26 | 37.16392 | 98.22096 | 27909 ft | 325 kts | 297° |
| 2026-04-25 16:26 | 37.17444 | 98.19599 | 27485 ft | 323 kts | 298° |
| 2026-04-25 16:26 | 37.18479 | 98.17143 | 27045 ft | 322 kts | 297° |
| 2026-04-25 16:26 | 37.19523 | 98.14663 | 26616 ft | 321 kts | 298° |
| 2026-04-25 16:27 | 37.20559 | 98.12197 | 26202 ft | 319 kts | 297° |
| 2026-04-25 16:27 | 37.21593 | 98.09737 | 25769 ft | 318 kts | 297° |
| 2026-04-25 16:27 | 37.22621 | 98.07288 | 25336 ft | 318 kts | 297° |
| 2026-04-25 16:27 | 37.23653 | 98.04830 | 24891 ft | 318 kts | 297° |
| 2026-04-25 16:28 | 37.24683 | 98.02371 | 24428 ft | 319 kts | 297° |
| 2026-04-25 16:28 | 37.25716 | 97.99906 | 23996 ft | 320 kts | 297° |
| 2026-04-25 16:28 | 37.26750 | 97.97435 | 23558 ft | 320 kts | 297° |
| 2026-04-25 16:28 | 37.27785 | 97.94959 | 23031 ft | 321 kts | 297° |
| 2026-04-25 16:29 | 37.28822 | 97.92479 | 22561 ft | 319 kts | 297° |
| 2026-04-25 16:29 | 37.29851 | 97.90017 | 22101 ft | 318 kts | 297° |
| 2026-04-25 16:29 | 37.30877 | 97.87559 | 21618 ft | 317 kts | 296° |
| 2026-04-25 16:29 | 37.31896 | 97.85115 | 21175 ft | 315 kts | 296° |
| 2026-04-25 16:30 | 37.32910 | 97.82682 | 20719 ft | 314 kts | 296° |
| 2026-04-25 16:30 | 37.33922 | 97.80249 | 20255 ft | 314 kts | 296° |
| 2026-04-25 16:30 | 37.34932 | 97.77823 | 19805 ft | 313 kts | 296° |
| 2026-04-25 16:30 | 37.35940 | 97.75398 | 19376 ft | 313 kts | 295° |
| 2026-04-25 16:31 | 37.36779 | 97.72892 | 18910 ft | 310 kts | 279° |
| 2026-04-25 16:31 | 37.36778 | 97.70224 | 18493 ft | 305 kts | 256° |
| 2026-04-25 16:31 | 37.36013 | 97.67734 | 18032 ft | 308 kts | 236° |
| 2026-04-25 16:31 | 37.34790 | 97.65526 | 17560 ft | 310 kts | 232° |
| 2026-04-25 16:32 | 37.33489 | 97.63368 | 17075 ft | 310 kts | 232° |
| 2026-04-25 16:32 | 37.32178 | 97.61229 | 16611 ft | 309 kts | 232° |
| 2026-04-25 16:32 | 37.30869 | 97.59089 | 16165 ft | 308 kts | 233° |
| 2026-04-25 16:32 | 37.29572 | 97.56954 | 15712 ft | 307 kts | 233° |
| 2026-04-25 16:33 | 37.28284 | 97.54821 | 15229 ft | 307 kts | 234° |
| 2026-04-25 16:33 | 37.27432 | 97.53407 | 14939 ft | 306 kts | 233° |
| 2026-04-25 16:33 | 37.25720 | 97.50559 | 14719 ft | 306 kts | 233° |
| 2026-04-25 16:33 | 37.24457 | 97.48456 | 14673 ft | 305 kts | 233° |
| 2026-04-25 16:34 | 37.23601 | 97.47028 | 14656 ft | 302 kts | 233° |
| 2026-04-25 16:34 | 37.21947 | 97.44271 | 14652 ft | 292 kts | 233° |
| 2026-04-25 16:34 | 37.20755 | 97.42286 | 14636 ft | 278 kts | 233° |
| 2026-04-25 16:34 | 37.19642 | 97.40378 | 14609 ft | 265 kts | 234° |
| 2026-04-25 16:35 | 37.18592 | 97.38518 | 14395 ft | 260 kts | 234° |
| 2026-04-25 16:35 | 37.17545 | 97.36647 | 13987 ft | 267 kts | 234° |
| 2026-04-25 16:35 | 37.16489 | 97.34747 | 14022 ft | 261 kts | 235° |
| 2026-04-25 16:35 | 37.15789 | 97.33485 | 14075 ft | 263 kts | 235° |
| 2026-04-25 16:36 | 37.14732 | 97.31580 | 14144 ft | 269 kts | 235° |
| 2026-04-25 16:36 | 37.14018 | 97.30295 | 14184 ft | 273 kts | 235° |
| 2026-04-25 16:36 | 37.12557 | 97.27663 | 14171 ft | 274 kts | 235° |
| 2026-04-25 16:36 | 37.11498 | 97.25751 | 14032 ft | 268 kts | 235° |
| 2026-04-25 16:37 | 37.10438 | 97.23839 | 13719 ft | 268 kts | 235° |
| 2026-04-25 16:37 | 37.09373 | 97.21912 | 13334 ft | 269 kts | 235° |
| 2026-04-25 16:37 | 37.08307 | 97.19986 | 13005 ft | 269 kts | 235° |
| 2026-04-25 16:37 | 37.07242 | 97.18067 | 12829 ft | 268 kts | 235° |
| 2026-04-25 16:38 | 37.06173 | 97.16142 | 12806 ft | 270 kts | 235° |
| 2026-04-25 16:38 | 37.05103 | 97.14218 | 12786 ft | 268 kts | 235° |
| 2026-04-25 16:38 | 37.04042 | 97.12309 | 12785 ft | 267 kts | 235° |
| 2026-04-25 16:38 | 37.02985 | 97.10409 | 12779 ft | 267 kts | 235° |
| 2026-04-25 16:39 | 37.01917 | 97.08500 | 12787 ft | 267 kts | 235° |
| 2026-04-25 16:39 | 37.00812 | 97.06625 | 12783 ft | 267 kts | 237° |
| 2026-04-25 16:39 | 36.99733 | 97.04752 | 12769 ft | 263 kts | 240° |
| 2026-04-25 16:39 | 36.99275 | 97.02634 | 12801 ft | 249 kts | 278° |
| 2026-04-25 16:40 | 36.99888 | 97.00688 | 12787 ft | 242 kts | 314° |
| 2026-04-25 16:40 | 37.01321 | 96.99622 | 12785 ft | 246 kts | 350° |
| 2026-04-25 16:40 | 37.03012 | 96.99831 | 12785 ft | 249 kts | 21° |
| 2026-04-25 16:40 | 37.04621 | 97.00609 | 12791 ft | 247 kts | 25° |
| 2026-04-25 16:41 | 37.05924 | 97.01857 | 12775 ft | 232 kts | 59° |
| 2026-04-25 16:41 | 37.06340 | 97.03053 | 12750 ft | 224 kts | 71° |
| 2026-04-25 16:41 | 37.07451 | 97.07316 | 12196 ft | 219 kts | 71° |
| 2026-04-25 16:42 | 37.07920 | 97.09125 | 11944 ft | 218 kts | 71° |
| 2026-04-25 16:42 | 37.08387 | 97.10930 | 11792 ft | 219 kts | 71° |
| 2026-04-25 16:42 | 37.08851 | 97.12720 | 11599 ft | 213 kts | 71° |
| 2026-04-25 16:42 | 37.09295 | 97.14477 | 11257 ft | 211 kts | 71° |
| 2026-04-25 16:43 | 37.09740 | 97.16203 | 10932 ft | 202 kts | 71° |
| 2026-04-25 16:43 | 37.10153 | 97.17811 | 10600 ft | 185 kts | 71° |
| 2026-04-25 16:43 | 37.10535 | 97.19316 | 10221 ft | 178 kts | 70° |
| 2026-04-25 16:43 | 37.10909 | 97.20738 | 9951 ft | 166 kts | 70° |
| 2026-04-25 16:44 | 37.11261 | 97.22076 | 9778 ft | 159 kts | 70° |
| 2026-04-25 16:44 | 37.11593 | 97.23339 | 9649 ft | 151 kts | 70° |
| 2026-04-25 16:44 | 37.11907 | 97.24547 | 9489 ft | 142 kts | 69° |
| 2026-04-25 16:44 | 37.12219 | 97.25769 | 9549 ft | 154 kts | 69° |
| 2026-04-25 16:45 | 37.12574 | 97.27125 | 10098 ft | 172 kts | 70° |
| 2026-04-25 16:45 | 37.12968 | 97.28526 | 11052 ft | 174 kts | 68° |
| 2026-04-25 16:45 | 37.13345 | 97.30010 | 11902 ft | 170 kts | 72° |
| 2026-04-25 16:45 | 37.13682 | 97.31320 | 11952 ft | 159 kts | 71° |
| 2026-04-25 16:46 | 37.14091 | 97.32747 | 11937 ft | 184 kts | 68° |
| 2026-04-25 16:46 | 37.14544 | 97.34210 | 11798 ft | 177 kts | 67° |
| 2026-04-25 16:46 | 37.14941 | 97.35599 | 11807 ft | 166 kts | 73° |
| 2026-04-25 16:46 | 37.15148 | 97.36546 | 11855 ft | 168 kts | 74° |
| 2026-04-25 16:47 | 37.14767 | 97.38377 | 11900 ft | 180 kts | 137° |
| 2026-04-25 16:47 | 37.13569 | 97.38849 | 11903 ft | 192 kts | 186° |
| 2026-04-25 16:47 | 37.12422 | 97.37987 | 12086 ft | 208 kts | 235° |
| 2026-04-25 16:47 | 37.12004 | 97.36189 | 12309 ft | 228 kts | 273° |
| 2026-04-25 16:48 | 37.12227 | 97.34176 | 12663 ft | 237 kts | 282° |
| 2026-04-25 16:48 | 37.12554 | 97.32147 | 12760 ft | 245 kts | 283° |
| 2026-04-25 16:48 | 37.12867 | 97.29941 | 12800 ft | 271 kts | 272° |
| 2026-04-25 16:48 | 37.12373 | 97.27582 | 12820 ft | 294 kts | 240° |
| 2026-04-25 16:49 | 37.11218 | 97.25367 | 12798 ft | 311 kts | 235° |
| 2026-04-25 16:49 | 37.09950 | 97.23058 | 12809 ft | 332 kts | 235° |
| 2026-04-25 16:49 | 37.08602 | 97.20622 | 12813 ft | 348 kts | 235° |
| 2026-04-25 16:49 | 37.07198 | 97.18097 | 12806 ft | 359 kts | 235° |
| 2026-04-25 16:50 | 37.05761 | 97.15515 | 12798 ft | 359 kts | 235° |
| 2026-04-25 16:50 | 37.04366 | 97.13012 | 12773 ft | 340 kts | 235° |
| 2026-04-25 16:50 | 37.03046 | 97.10645 | 12770 ft | 325 kts | 235° |
| 2026-04-25 16:50 | 37.01753 | 97.08338 | 12791 ft | 321 kts | 236° |
| 2026-04-25 16:51 | 37.00452 | 97.06109 | 12779 ft | 315 kts | 235° |
| 2026-04-25 16:51 | 36.99211 | 97.03846 | 12745 ft | 315 kts | 248° |
| 2026-04-25 16:51 | 36.98813 | 97.01217 | 12782 ft | 306 kts | 276° |
| 2026-04-25 16:51 | 36.99139 | 96.99566 | 12766 ft | 285 kts | 297° |
| 2026-04-25 16:52 | 37.00850 | 96.97526 | 12759 ft | 240 kts | 344° |
| 2026-04-25 16:52 | 37.02432 | 96.97407 | 12797 ft | 224 kts | 4° |
| 2026-04-25 16:52 | 37.03960 | 96.97651 | 12665 ft | 219 kts | 21° |
| 2026-04-25 16:52 | 37.05122 | 96.98765 | 12333 ft | 211 kts | 60° |
| 2026-04-25 16:53 | 37.06049 | 97.01996 | 11795 ft | 194 kts | 70° |
| 2026-04-25 16:53 | 37.06479 | 97.03618 | 11807 ft | 206 kts | 71° |
| 2026-04-25 16:53 | 37.06946 | 97.05392 | 11804 ft | 215 kts | 71° |
| 2026-04-25 16:54 | 37.07411 | 97.07175 | 11795 ft | 219 kts | 71° |
| 2026-04-25 16:54 | 37.07879 | 97.08975 | 11780 ft | 214 kts | 71° |
| 2026-04-25 16:54 | 37.08323 | 97.10689 | 11708 ft | 202 kts | 71° |
| 2026-04-25 16:54 | 37.08741 | 97.12302 | 11473 ft | 188 kts | 71° |
| 2026-04-25 16:55 | 37.09139 | 97.13837 | 11123 ft | 182 kts | 71° |
| 2026-04-25 16:55 | 37.09521 | 97.15314 | 10795 ft | 175 kts | 71° |
| 2026-04-25 16:55 | 37.09875 | 97.16678 | 10626 ft | 151 kts | 70° |
| 2026-04-25 16:55 | 37.10184 | 97.17865 | 10441 ft | 138 kts | 69° |
| 2026-04-25 16:56 | 37.10473 | 97.18979 | 10260 ft | 132 kts | 70° |
| 2026-04-25 16:56 | 37.10750 | 97.20059 | 10058 ft | 130 kts | 70° |
| 2026-04-25 16:56 | 37.11027 | 97.21132 | 9932 ft | 130 kts | 70° |
| 2026-04-25 16:56 | 37.11309 | 97.22239 | 9813 ft | 135 kts | 70° |
| 2026-04-25 16:57 | 37.11605 | 97.23365 | 9673 ft | 136 kts | 70° |
| 2026-04-25 16:57 | 37.11798 | 97.24108 | 9572 ft | 135 kts | 70° |
| 2026-04-25 16:57 | 37.12191 | 97.25607 | 9379 ft | 132 kts | 70° |
| 2026-04-25 16:57 | 37.12436 | 97.26552 | 9380 ft | 93 kts | 72° |
| 2026-04-25 16:58 | 37.12534 | 97.26859 | 9379 ft | 9 kts | 12° |
| 2026-04-25 16:58 | 37.12600 | 97.26841 | 9382 ft | 10 kts | 342° |
| 2026-04-25 16:58 | 37.12667 | 97.26813 | 9380 ft | 10 kts | 342° |
| 2026-04-25 16:58 | 37.12719 | 97.26767 | 9382 ft | 5 kts | 284° |
| 2026-04-25 16:59 | 37.12738 | 97.26731 | 9383 ft | 5 kts | 325° |
| 2026-04-25 16:59 | 37.12765 | 97.26718 | 9382 ft | 0 kts | 341° |